Time;durP1;ratioP1;P1;durP2;ratioP2;P2;SDS_P1;SDS_P2;PMS_P1;PMS_P2;Temp;Humidity;BMP_temperature;BMP_pressure;BME280_temperature;BME280_humidity;BME280_pressure;Samples;Min_cycle;Max_cycle;Signal;HPM_P1;HPM_P2
2020/12/04 00:00:22;;;;;;;23.67;12.13;;;;;;;;;;10227237;28;20515;-62
2020/12/04 00:05:19;;;;;;;25.03;10.73;;;;;;;;;;10215691;28;20053;-62
2020/12/04 00:10:17;;;;;;;19.20;9.70;;;;;;;;;;10211439;28;20037;-62
2020/12/04 00:15:14;;;;;;;25.03;9.43;;;;;;;;;;10216826;28;20050;-61
2020/12/04 00:20:11;;;;;;;26.13;10.70;;;;;;;;;;10184403;28;20045;-62
2020/12/04 00:25:09;;;;;;;20.37;9.20;;;;;;;;;;10226974;28;20220;-62
2020/12/04 00:30:06;;;;;;;19.50;9.23;;;;;;;;;;10193632;28;20048;-62
2020/12/04 00:35:03;;;;;;;20.70;10.87;;;;;;;;;;10244538;28;20050;-62
2020/12/04 00:40:01;;;;;;;18.80;7.50;;;;;;;;;;10199882;28;22057;-62
2020/12/04 00:44:58;;;;;;;15.23;8.53;;;;;;;;;;10229555;28;20022;-62
2020/12/04 00:49:55;;;;;;;22.63;8.63;;;;;;;;;;10189731;28;20407;-62
2020/12/04 00:54:53;;;;;;;18.17;9.07;;;;;;;;;;10243345;28;20037;-62
2020/12/04 00:59:50;;;;;;;21.07;9.80;;;;;;;;;;10180519;28;20033;-62
2020/12/04 01:04:48;;;;;;;20.70;8.23;;;;;;;;;;10173224;28;20069;-63
2020/12/04 01:09:45;;;;;;;19.57;9.57;;;;;;;;;;10185981;28;20488;-62
2020/12/04 01:14:43;;;;;;;17.40;7.83;;;;;;;;;;10199796;28;20027;-62
2020/12/04 01:19:40;;;;;;;15.67;6.73;;;;;;;;;;10200698;28;20034;-62
2020/12/04 01:24:37;;;;;;;16.00;8.23;;;;;;;;;;10194596;28;20516;-63
2020/12/04 01:29:35;;;;;;;17.20;7.67;;;;;;;;;;10174039;28;20527;-62
2020/12/04 01:34:32;;;;;;;17.80;7.87;;;;;;;;;;10217175;28;20041;-62
2020/12/04 01:39:29;;;;;;;14.70;6.93;;;;;;;;;;10199089;28;20431;-62
2020/12/04 01:44:27;;;;;;;17.03;7.07;;;;;;;;;;10239745;28;20050;-62
2020/12/04 01:49:24;;;;;;;15.90;7.40;;;;;;;;;;10211061;28;20044;-61
2020/12/04 01:54:22;;;;;;;16.70;7.57;;;;;;;;;;10216421;28;20077;-61
2020/12/04 01:59:19;;;;;;;13.27;7.07;;;;;;;;;;10192655;28;20666;-63
2020/12/04 02:04:17;;;;;;;12.93;6.63;;;;;;;;;;10192846;28;20389;-61
2020/12/04 02:09:34;;;;;;;17.17;7.77;;;;;;;;;;10195889;28;20508;-61
2020/12/04 02:14:32;;;;;;;15.00;7.40;;;;;;;;;;10192904;28;20586;-62
2020/12/04 02:19:34;;;;;;;16.35;7.47;;;;;;;;;;10194531;28;20080;-61
2020/12/04 02:24:32;;;;;;;15.35;6.78;;;;;;;;;;10198868;28;20253;-62
2020/12/04 02:29:30;;;;;;;15.75;7.78;;;;;;;;;;10185000;28;20600;-63
2020/12/04 02:34:27;;;;;;;13.93;7.50;;;;;;;;;;10198603;28;20507;-61
2020/12/04 02:39:24;;;;;;;15.87;6.70;;;;;;;;;;10174497;28;20100;-62
2020/12/04 02:44:22;;;;;;;17.87;7.57;;;;;;;;;;10231282;28;20080;-61
2020/12/04 02:49:22;;;;;;;14.37;6.43;;;;;;;;;;10192988;28;20099;-62
2020/12/04 02:54:19;;;;;;;15.73;7.32;;;;;;;;;;10192950;28;20041;-61
2020/12/04 02:59:17;;;;;;;15.13;6.57;;;;;;;;;;10208642;28;20046;-61
2020/12/04 03:04:14;;;;;;;16.17;7.07;;;;;;;;;;10232257;28;20038;-62
2020/12/04 03:09:11;;;;;;;12.30;6.07;;;;;;;;;;10196533;28;20041;-61
2020/12/04 03:14:09;;;;;;;15.67;6.73;;;;;;;;;;10201293;28;20033;-61
2020/12/04 03:19:06;;;;;;;13.90;7.23;;;;;;;;;;10185975;28;20038;-62
2020/12/04 03:24:03;;;;;;;11.07;6.10;;;;;;;;;;10203472;28;20046;-63
2020/12/04 03:29:01;;;;;;;14.20;7.27;;;;;;;;;;10210132;28;20542;-62
2020/12/04 03:33:58;;;;;;;19.73;8.27;;;;;;;;;;10199858;28;20034;-62
2020/12/04 03:38:56;;;;;;;16.60;6.70;;;;;;;;;;10212178;28;20042;-64
2020/12/04 03:43:53;;;;;;;12.20;6.90;;;;;;;;;;10177763;28;20121;-62
2020/12/04 03:48:50;;;;;;;15.77;7.37;;;;;;;;;;10198283;28;20035;-62
2020/12/04 03:53:48;;;;;;;17.97;7.23;;;;;;;;;;10220685;28;20420;-61
2020/12/04 03:58:45;;;;;;;14.90;7.50;;;;;;;;;;10238562;28;20673;-62
2020/12/04 04:03:42;;;;;;;14.73;7.87;;;;;;;;;;10223554;28;20046;-62
2020/12/04 04:08:40;;;;;;;16.10;7.17;;;;;;;;;;10200414;28;20038;-63
2020/12/04 04:13:37;;;;;;;16.57;7.87;;;;;;;;;;10181810;28;20042;-62
2020/12/04 04:18:37;;;;;;;17.92;8.35;;;;;;;;;;10204056;28;20049;-62
2020/12/04 04:23:34;;;;;;;17.92;7.78;;;;;;;;;;10213182;28;20030;-61
2020/12/04 04:28:32;;;;;;;14.07;6.93;;;;;;;;;;10195300;28;20038;-61
2020/12/04 04:33:29;;;;;;;21.23;8.07;;;;;;;;;;10194057;28;20041;-62
2020/12/04 04:38:26;;;;;;;15.90;8.53;;;;;;;;;;10197384;28;20039;-62
2020/12/04 04:43:24;;;;;;;16.23;7.87;;;;;;;;;;10178169;28;20039;-61
2020/12/04 04:48:28;;;;;;;21.00;8.43;;;;;;;;;;10190347;28;20429;-61
2020/12/04 04:53:27;;;;;;;20.67;7.95;;;;;;;;;;10181286;28;20051;-60
2020/12/04 04:58:25;;;;;;;17.15;7.72;;;;;;;;;;10191566;28;20049;-61
2020/12/04 05:03:23;;;;;;;18.17;9.30;;;;;;;;;;10200858;28;20047;-62
2020/12/04 05:08:21;;;;;;;17.33;8.70;;;;;;;;;;10182649;28;20038;-62
2020/12/04 05:13:19;;;;;;;19.33;8.10;;;;;;;;;;10199871;28;20637;-62
2020/12/04 05:18:20;;;;;;;19.80;9.13;;;;;;;;;;10197735;28;20087;-62
2020/12/04 05:23:19;;;;;;;17.38;9.05;;;;;;;;;;10188891;28;20073;-61
2020/12/04 05:28:17;;;;;;;19.27;10.02;;;;;;;;;;10167047;28;20076;-61
2020/12/04 05:33:14;;;;;;;;;;;;;;;;;;10192415;28;20042;-61
2020/12/04 05:38:16;;;;;;;21.77;10.13;;;;;;;;;;10182637;28;20442;-62
2020/12/04 05:43:15;;;;;;;18.15;9.52;;;;;;;;;;10195839;28;21466;-62
2020/12/04 05:48:13;;;;;;;20.70;8.77;;;;;;;;;;10231310;28;20481;-62
2020/12/04 05:53:11;;;;;;;24.67;10.25;;;;;;;;;;10232439;28;20030;-62
2020/12/04 05:58:08;;;;;;;20.70;10.17;;;;;;;;;;10232196;28;20042;-62
2020/12/04 06:03:06;;;;;;;19.30;9.03;;;;;;;;;;10212003;28;20293;-63
2020/12/04 06:08:04;;;;;;;21.03;10.43;;;;;;;;;;10216454;28;20393;-61
2020/12/04 06:13:02;;;;;;;22.25;10.95;;;;;;;;;;10222550;28;20132;-60
2020/12/04 06:18:02;;;;;;;24.77;10.48;;;;;;;;;;10206148;28;20136;-62
2020/12/04 06:23:28;;;;;;;20.63;10.20;;;;;;;;;;10183429;28;20121;-62
2020/12/04 06:28:26;;;;;;;27.02;10.43;;;;;;;;;;10189946;28;20093;-62
2020/12/04 06:33:30;;;;;;;20.33;8.53;;;;;;;;;;10209948;28;20083;-62
2020/12/04 06:38:38;;;;;;;22.48;11.05;;;;;;;;;;10185493;28;20073;-63
2020/12/04 06:43:36;;;;;;;27.00;14.13;;;;;;;;;;10194676;28;20047;-61
2020/12/04 06:48:33;;;;;;;22.27;11.27;;;;;;;;;;10165979;28;20035;-62
2020/12/04 06:53:31;;;;;;;28.13;12.13;;;;;;;;;;10189108;28;20673;-62
2020/12/04 06:58:29;;;;;;;26.50;11.57;;;;;;;;;;10178321;28;20125;-64
2020/12/04 07:03:26;;;;;;;26.88;11.63;;;;;;;;;;10207623;28;20039;-62
2020/12/04 07:08:23;;;;;;;32.10;13.07;;;;;;;;;;10189603;28;20043;-62
2020/12/04 07:13:21;;;;;;;28.13;12.27;;;;;;;;;;10179263;28;20520;-62
2020/12/04 07:18:19;;;;;;;26.90;11.50;;;;;;;;;;10185577;28;20042;-63
2020/12/04 07:23:16;;;;;;;22.37;10.07;;;;;;;;;;10176490;28;20045;-64
2020/12/04 07:28:14;;;;;;;23.40;10.20;;;;;;;;;;10202868;28;20096;-61
2020/12/04 07:33:12;;;;;;;26.70;13.03;;;;;;;;;;10184115;28;20315;-62
2020/12/04 07:38:10;;;;;;;29.92;11.60;;;;;;;;;;10196325;28;20447;-61
2020/12/04 07:43:11;;;;;;;26.60;11.50;;;;;;;;;;10228870;28;20093;-63
2020/12/04 07:48:08;;;;;;;27.17;11.35;;;;;;;;;;10179259;28;20053;-63
2020/12/04 07:53:07;;;;;;;18.57;9.47;;;;;;;;;;10178752;28;20270;-62
2020/12/04 07:58:04;;;;;;;;;;;;;;;;;;10228689;28;20096;-63
2020/12/04 08:03:12;;;;;;;21.65;10.10;;;;;;;;;;10189476;28;20606;-63
2020/12/04 08:08:10;;;;;;;28.27;11.30;;;;;;;;;;10193275;28;20101;-62
2020/12/04 08:13:12;;;;;;;24.17;10.13;;;;;;;;;;10216786;28;20515;-64
2020/12/04 08:18:10;;;;;;;26.15;12.13;;;;;;;;;;10199592;28;20042;-63
2020/12/04 08:23:08;;;;;;;22.98;9.43;;;;;;;;;;10221651;28;20045;-62
2020/12/04 08:28:05;;;;;;;24.10;10.87;;;;;;;;;;10198660;28;20034;-62
2020/12/04 08:33:05;;;;;;;25.23;9.90;;;;;;;;;;10190169;28;20057;-64
2020/12/04 08:38:09;;;;;;;22.17;11.35;;;;;;;;;;10232810;28;20120;-62
2020/12/04 08:43:07;;;;;;;23.80;10.57;;;;;;;;;;10170424;28;20030;-63
2020/12/04 08:48:12;;;;;;;18.13;9.23;;;;;;;;;;10228257;28;20514;-63
2020/12/04 08:53:10;;;;;;;19.20;9.85;;;;;;;;;;10173942;28;20072;-62
2020/12/04 08:58:08;;;;;;;;;;;;;;;;;;10216122;28;20307;-63
2020/12/04 09:03:06;;;;;;;20.33;9.52;;;;;;;;;;10170927;28;20485;-64
2020/12/04 09:08:06;;;;;;;17.08;8.32;;;;;;;;;;10181477;28;20023;-62
2020/12/04 09:13:03;;;;;;;;;;;;;;;;;;10194978;28;20119;-62
2020/12/04 09:18:01;;;;;;;22.00;10.32;;;;;;;;;;10180052;28;20005;-62
2020/12/04 09:22:58;;;;;;;23.23;9.95;;;;;;;;;;10170295;28;20038;-63
2020/12/04 09:27:56;;;;;;;27.77;10.60;;;;;;;;;;10177101;28;20041;-63
2020/12/04 09:32:53;;;;;;;21.43;9.90;;;;;;;;;;10181195;28;20058;-64
2020/12/04 09:37:50;;;;;;;18.87;9.33;;;;;;;;;;10188946;28;20042;-63
2020/12/04 09:42:48;;;;;;;16.90;7.70;;;;;;;;;;10253539;28;20042;-63
2020/12/04 09:47:45;;;;;;;18.83;8.03;;;;;;;;;;10167162;28;20076;-63
2020/12/04 09:52:42;;;;;;;22.47;9.83;;;;;;;;;;10205637;28;20041;-64
2020/12/04 09:57:40;;;;;;;19.60;9.37;;;;;;;;;;10239341;28;20124;-63
2020/12/04 10:02:38;;;;;;;18.90;7.67;;;;;;;;;;10191793;28;20527;-62
2020/12/04 10:07:35;;;;;;;15.65;7.45;;;;;;;;;;10215859;28;20046;-64
2020/12/04 10:12:33;;;;;;;18.00;7.57;;;;;;;;;;10189231;28;20031;-64
2020/12/04 10:17:30;;;;;;;20.67;8.93;;;;;;;;;;10221543;28;20040;-62
2020/12/04 10:22:28;;;;;;;19.77;9.07;;;;;;;;;;10181701;28;20065;-62
2020/12/04 10:27:25;;;;;;;20.67;8.97;;;;;;;;;;10227843;28;20064;-63
2020/12/04 10:32:22;;;;;;;13.13;7.00;;;;;;;;;;10189800;28;20837;-61
2020/12/04 10:37:20;;;;;;;18.53;8.93;;;;;;;;;;10168869;28;20038;-63
2020/12/04 10:42:17;;;;;;;15.63;7.33;;;;;;;;;;10211887;28;20125;-62
2020/12/04 10:47:16;;;;;;;13.50;6.00;;;;;;;;;;10212634;28;20503;-63
2020/12/04 10:52:14;;;;;;;16.92;7.85;;;;;;;;;;10204259;28;20457;-62
2020/12/04 10:57:11;;;;;;;18.37;8.60;;;;;;;;;;10193617;28;20038;-62
2020/12/04 11:02:18;;;;;;;13.70;7.53;;;;;;;;;;10185298;28;20094;-62
2020/12/04 11:07:16;;;;;;;17.02;6.93;;;;;;;;;;10182496;28;20089;-63
2020/12/04 11:12:13;;;;;;;16.33;7.50;;;;;;;;;;10204314;28;20110;-63
2020/12/04 11:17:11;;;;;;;24.23;11.27;;;;;;;;;;10187679;28;20516;-63
2020/12/04 11:22:08;;;;;;;19.77;8.57;;;;;;;;;;10167187;28;20046;-62
2020/12/04 11:27:05;;;;;;;15.27;6.03;;;;;;;;;;10171485;28;20291;-64
2020/12/04 11:32:03;;;;;;;13.73;7.03;;;;;;;;;;10184834;28;20039;-64
2020/12/04 11:37:00;;;;;;;9.40;4.87;;;;;;;;;;10200573;28;20055;-63
2020/12/04 11:41:57;;;;;;;16.67;7.40;;;;;;;;;;10214665;28;20587;-63
2020/12/04 11:46:55;;;;;;;21.47;7.53;;;;;;;;;;10200610;28;20046;-61
2020/12/04 11:51:52;;;;;;;16.23;8.07;;;;;;;;;;10172012;28;20496;-62
2020/12/04 11:56:53;;;;;;;18.37;7.47;;;;;;;;;;10194402;28;20066;-62
2020/12/04 12:01:50;;;;;;;18.90;7.30;;;;;;;;;;10213323;28;20034;-62
2020/12/04 12:06:47;;;;;;;14.37;6.97;;;;;;;;;;10201795;28;20031;-60
2020/12/04 12:11:45;;;;;;;17.47;7.37;;;;;;;;;;10222485;28;20409;-62
2020/12/04 12:16:45;;;;;;;18.67;8.63;;;;;;;;;;10217643;28;20038;-64
2020/12/04 12:21:47;;;;;;;16.77;6.88;;;;;;;;;;10234672;28;20073;-61
2020/12/04 12:26:46;;;;;;;20.70;8.02;;;;;;;;;;10199687;28;20574;-62
2020/12/04 12:31:43;;;;;;;15.20;5.65;;;;;;;;;;10173674;28;20042;-61
2020/12/04 12:36:41;;;;;;;15.53;6.47;;;;;;;;;;10174205;28;20030;-63
2020/12/04 12:41:38;;;;;;;16.40;7.47;;;;;;;;;;10178508;28;20040;-61
2020/12/04 12:46:40;;;;;;;12.63;6.80;;;;;;;;;;10209964;28;20075;-63
2020/12/04 12:51:37;;;;;;;19.02;7.82;;;;;;;;;;10188372;28;20030;-64
2020/12/04 12:56:34;;;;;;;15.63;6.57;;;;;;;;;;10196223;28;20516;-63
2020/12/04 13:01:32;;;;;;;14.87;6.30;;;;;;;;;;10195381;28;20022;-64
2020/12/04 13:06:29;;;;;;;11.37;5.37;;;;;;;;;;10196118;28;20031;-63
2020/12/04 13:11:26;;;;;;;11.07;5.93;;;;;;;;;;10219672;28;20030;-63
2020/12/04 13:16:24;;;;;;;12.63;5.77;;;;;;;;;;10236157;28;20427;-63
2020/12/04 13:21:21;;;;;;;8.77;4.77;;;;;;;;;;10176477;28;20178;-64
2020/12/04 13:31:34;;;;;;;15.68;7.45;;;;;;;;;;10185989;28;20031;-63
2020/12/04 13:36:32;;;;;;;20.97;7.00;;;;;;;;;;10201957;28;20467;-66
2020/12/04 13:41:30;;;;;;;18.67;6.20;;;;;;;;;;10231530;28;20034;-64
2020/12/04 13:46:28;;;;;;;15.00;6.53;;;;;;;;;;10198230;28;20124;-65
2020/12/04 13:51:29;;;;;;;15.53;6.63;;;;;;;;;;10188849;28;20122;-64
2020/12/04 13:56:27;;;;;;;13.60;5.72;;;;;;;;;;10228946;28;20526;-64
2020/12/04 14:01:25;;;;;;;9.30;5.00;;;;;;;;;;10176878;28;20120;-65
2020/12/04 14:06:22;;;;;;;17.60;6.90;;;;;;;;;;10203931;28;20504;-64
2020/12/04 14:11:19;;;;;;;13.00;5.87;;;;;;;;;;10187533;28;20038;-64
2020/12/04 14:16:17;;;;;;;14.70;5.40;;;;;;;;;;10212187;28;20651;-64
2020/12/04 14:21:14;;;;;;;7.60;4.30;;;;;;;;;;10251941;28;20033;-64
2020/12/04 14:26:12;;;;;;;12.17;5.40;;;;;;;;;;10221642;28;20430;-63
2020/12/04 14:31:09;;;;;;;13.70;5.23;;;;;;;;;;10242949;28;20037;-63
2020/12/04 14:36:06;;;;;;;16.37;5.73;;;;;;;;;;10245415;28;20428;-64
2020/12/04 14:41:08;;;;;;;8.33;3.30;;;;;;;;;;10182967;28;20142;-65
2020/12/04 14:46:10;;;;;;;10.95;5.25;;;;;;;;;;10193638;28;20046;-66
2020/12/04 14:51:07;;;;;;;14.98;5.90;;;;;;;;;;10231977;28;20041;-64
2020/12/04 14:56:08;;;;;;;16.47;6.80;;;;;;;;;;10216224;28;20044;-64
2020/12/04 15:01:06;;;;;;;13.07;5.82;;;;;;;;;;10204862;28;20038;-64
2020/12/04 15:06:03;;;;;;;7.13;3.00;;;;;;;;;;10195077;28;20051;-64
2020/12/04 15:11:01;;;;;;;14.80;4.40;;;;;;;;;;10195690;28;20037;-65
2020/12/04 15:15:59;;;;;;;8.40;4.17;;;;;;;;;;10217819;28;20034;-63
2020/12/04 15:20:56;;;;;;;3.42;2.05;;;;;;;;;;10192167;28;20043;-63
2020/12/04 15:25:54;;;;;;;18.20;5.33;;;;;;;;;;10195925;28;20038;-65
2020/12/04 15:30:51;;;;;;;5.88;3.53;;;;;;;;;;10177265;28;20073;-63
2020/12/04 15:35:49;;;;;;;7.40;2.30;;;;;;;;;;10177538;28;20614;-63
2020/12/04 15:40:47;;;;;;;10.60;3.33;;;;;;;;;;10190257;28;20064;-64
2020/12/04 15:45:45;;;;;;;11.30;4.80;;;;;;;;;;10206856;28;20045;-64
2020/12/04 15:50:42;;;;;;;14.43;6.93;;;;;;;;;;10190743;28;20416;-63
2020/12/04 15:55:40;;;;;;;25.83;7.87;;;;;;;;;;10193240;28;20424;-63
2020/12/04 16:00:39;;;;;;;37.23;13.07;;;;;;;;;;10185006;28;20401;-64
2020/12/04 16:05:36;;;;;;;21.10;7.05;;;;;;;;;;10176877;28;20489;-64
2020/12/04 16:10:36;;;;;;;16.13;6.60;;;;;;;;;;10191871;28;20217;-64
2020/12/04 16:15:34;;;;;;;14.85;5.95;;;;;;;;;;10177467;28;20054;-63
2020/12/04 16:20:31;;;;;;;19.27;6.40;;;;;;;;;;10178921;28;20500;-65
2020/12/04 16:25:29;;;;;;;15.20;4.90;;;;;;;;;;10173720;28;20050;-64
2020/12/04 16:30:26;;;;;;;12.23;5.30;;;;;;;;;;10186502;28;20041;-64
2020/12/04 16:35:23;;;;;;;17.60;5.73;;;;;;;;;;10178575;28;20033;-63
2020/12/04 16:40:21;;;;;;;17.90;5.97;;;;;;;;;;10189893;28;20034;-64
2020/12/04 16:45:18;;;;;;;14.77;6.60;;;;;;;;;;10171411;28;20069;-64
2020/12/04 16:50:17;;;;;;;21.23;6.93;;;;;;;;;;10208380;28;20038;-65
2020/12/04 16:55:16;;;;;;;9.93;4.63;;;;;;;;;;10207502;28;20035;-65
2020/12/04 17:00:13;;;;;;;6.70;4.27;;;;;;;;;;10233470;28;20038;-64
2020/12/04 17:05:10;;;;;;;6.90;3.93;;;;;;;;;;10195687;28;20031;-64
2020/12/04 17:10:08;;;;;;;9.97;5.37;;;;;;;;;;10193031;28;20039;-64
2020/12/04 17:15:06;;;;;;;11.70;4.73;;;;;;;;;;10190369;28;20042;-64
2020/12/04 17:20:04;;;;;;;14.35;5.72;;;;;;;;;;10196933;28;20037;-65
2020/12/04 17:25:02;;;;;;;10.70;5.43;;;;;;;;;;10203370;28;20035;-63
2020/12/04 17:29:59;;;;;;;6.53;4.27;;;;;;;;;;10200522;28;20126;-64
2020/12/04 17:34:56;;;;;;;11.97;4.83;;;;;;;;;;10203835;28;20033;-65
2020/12/04 17:39:54;;;;;;;8.63;3.97;;;;;;;;;;10223307;28;20516;-63
2020/12/04 17:44:51;;;;;;;9.60;3.90;;;;;;;;;;10194372;28;20038;-64
2020/12/04 17:49:48;;;;;;;18.70;6.43;;;;;;;;;;10196050;28;20042;-64
2020/12/04 17:54:46;;;;;;;13.77;5.43;;;;;;;;;;10212634;28;20034;-65
2020/12/04 17:59:43;;;;;;;14.00;6.03;;;;;;;;;;10214825;28;20618;-64
2020/12/04 18:04:40;;;;;;;14.90;7.03;;;;;;;;;;10187120;28;20052;-65
2020/12/04 18:09:40;;;;;;;15.33;7.23;;;;;;;;;;10184633;28;20124;-64
2020/12/04 18:14:38;;;;;;;8.35;4.80;;;;;;;;;;10213387;28;20042;-64
2020/12/04 18:19:38;;;;;;;13.37;5.90;;;;;;;;;;10197147;28;20041;-68
2020/12/04 18:24:36;;;;;;;15.25;7.00;;;;;;;;;;10211907;28;20046;-64
2020/12/04 18:29:34;;;;;;;15.27;7.43;;;;;;;;;;10180600;28;20046;-65
2020/12/04 18:34:31;;;;;;;12.63;5.87;;;;;;;;;;10192133;28;20721;-65
2020/12/04 18:39:29;;;;;;;15.03;6.20;;;;;;;;;;10222471;28;20547;-64
2020/12/04 18:44:27;;;;;;;8.23;3.27;;;;;;;;;;10173404;28;20048;-65
2020/12/04 18:49:24;;;;;;;14.82;6.35;;;;;;;;;;10173742;28;20381;-65
2020/12/04 18:54:21;;;;;;;12.80;6.40;;;;;;;;;;10176580;28;20043;-65
2020/12/04 18:59:19;;;;;;;7.60;4.00;;;;;;;;;;10227791;28;20103;-65
2020/12/04 19:04:16;;;;;;;14.60;6.10;;;;;;;;;;10180518;28;20034;-64
2020/12/04 19:09:14;;;;;;;23.17;7.47;;;;;;;;;;10218817;28;20030;-65
2020/12/04 19:14:12;;;;;;;19.80;7.67;;;;;;;;;;10160065;28;20069;-65
2020/12/04 19:19:09;;;;;;;17.63;7.20;;;;;;;;;;10191045;28;20084;-65
2020/12/04 19:24:07;;;;;;;16.50;7.30;;;;;;;;;;10171041;28;20030;-65
2020/12/04 19:29:04;;;;;;;11.77;5.37;;;;;;;;;;10185080;28;20046;-67
2020/12/04 19:34:01;;;;;;;10.13;4.73;;;;;;;;;;10180584;28;20034;-65
2020/12/04 19:38:59;;;;;;;11.97;6.30;;;;;;;;;;10216007;28;20048;-64
2020/12/04 19:43:56;;;;;;;14.00;6.57;;;;;;;;;;10209013;28;20111;-64
2020/12/04 19:48:54;;;;;;;10.27;6.20;;;;;;;;;;10215306;28;20124;-65
2020/12/04 19:53:52;;;;;;;16.07;6.80;;;;;;;;;;10216146;28;20046;-64
2020/12/04 19:58:49;;;;;;;7.63;5.32;;;;;;;;;;10219189;28;20045;-64
2020/12/04 20:03:48;;;;;;;9.43;3.27;;;;;;;;;;10228626;28;20049;-65
2020/12/04 20:08:45;;;;;;;14.60;6.60;;;;;;;;;;10226246;28;20171;-65
2020/12/04 20:13:43;;;;;;;17.50;8.17;;;;;;;;;;10243644;28;20030;-65
2020/12/04 20:18:40;;;;;;;16.30;6.30;;;;;;;;;;10225875;28;20066;-64
2020/12/04 20:23:37;;;;;;;11.87;5.97;;;;;;;;;;10222388;28;20042;-66
2020/12/04 20:28:35;;;;;;;13.37;6.17;;;;;;;;;;10206340;28;20796;-65
2020/12/04 20:33:34;;;;;;;15.47;8.03;;;;;;;;;;10226715;28;20627;-64
2020/12/04 20:38:31;;;;;;;14.25;5.50;;;;;;;;;;10226387;28;20040;-63
2020/12/04 20:43:29;;;;;;;16.50;7.03;;;;;;;;;;10230007;28;21436;-64
2020/12/04 20:48:26;;;;;;;9.97;4.93;;;;;;;;;;10229160;28;20042;-67
2020/12/04 20:53:24;;;;;;;13.20;7.40;;;;;;;;;;10226400;28;20034;-64
2020/12/04 20:58:21;;;;;;;17.30;7.50;;;;;;;;;;10195550;28;20053;-67
2020/12/04 21:03:18;;;;;;;11.50;5.77;;;;;;;;;;10184212;28;20039;-62
2020/12/04 21:08:16;;;;;;;13.70;6.63;;;;;;;;;;10185794;28;20484;-65
2020/12/04 21:13:13;;;;;;;14.83;7.23;;;;;;;;;;10175487;28;20046;-64
2020/12/04 21:18:10;;;;;;;11.03;5.70;;;;;;;;;;10185828;28;20121;-65
2020/12/04 21:23:08;;;;;;;20.93;8.20;;;;;;;;;;10187860;28;20428;-64
2020/12/04 21:28:05;;;;;;;14.33;6.63;;;;;;;;;;10172182;28;20534;-66
2020/12/04 21:33:02;;;;;;;10.73;4.80;;;;;;;;;;10183098;28;21439;-64
2020/12/04 21:38:00;;;;;;;13.53;6.33;;;;;;;;;;10181014;28;20526;-63
2020/12/04 21:42:57;;;;;;;16.80;6.50;;;;;;;;;;10185521;28;20035;-64
2020/12/04 21:47:55;;;;;;;16.80;5.97;;;;;;;;;;10205382;28;20496;-64
2020/12/04 21:52:53;;;;;;;3.67;2.43;;;;;;;;;;10191009;28;20030;-63
2020/12/04 21:57:50;;;;;;;7.32;2.30;;;;;;;;;;10178087;28;20053;-64
2020/12/04 22:02:47;;;;;;;8.00;4.20;;;;;;;;;;10188298;28;20374;-66
2020/12/04 22:07:45;;;;;;;3.33;2.43;;;;;;;;;;10164072;28;20069;-64
2020/12/04 22:12:42;;;;;;;2.10;1.83;;;;;;;;;;10209442;28;20450;-64
2020/12/04 22:17:40;;;;;;;7.07;3.37;;;;;;;;;;10185442;28;20089;-64
2020/12/04 22:22:38;;;;;;;3.70;2.67;;;;;;;;;;10198674;28;20035;-63
2020/12/04 22:27:35;;;;;;;6.20;3.20;;;;;;;;;;10166437;28;20065;-63
2020/12/04 22:32:32;;;;;;;3.90;2.73;;;;;;;;;;10182186;28;20538;-65
2020/12/04 22:37:30;;;;;;;2.77;2.13;;;;;;;;;;10163923;28;20062;-63
2020/12/04 22:42:28;;;;;;;6.70;2.27;;;;;;;;;;10173716;28;20426;-63
2020/12/04 22:47:25;;;;;;;5.68;2.75;;;;;;;;;;10173576;28;20034;-66
2020/12/04 22:52:23;;;;;;;10.43;3.40;;;;;;;;;;10201488;28;20454;-65
2020/12/04 22:57:20;;;;;;;9.80;4.73;;;;;;;;;;10168146;28;20744;-62
2020/12/04 23:02:18;;;;;;;5.57;5.07;;;;;;;;;;10168027;28;20046;-65
2020/12/04 23:07:15;;;;;;;3.67;2.67;;;;;;;;;;10191777;28;20033;-64
2020/12/04 23:12:12;;;;;;;3.63;3.00;;;;;;;;;;10208619;28;20039;-64
2020/12/04 23:17:12;;;;;;;8.37;3.67;;;;;;;;;;10193580;28;20081;-63
2020/12/04 23:22:10;;;;;;;5.47;1.70;;;;;;;;;;10206959;28;20728;-64
2020/12/04 23:27:08;;;;;;;5.10;3.80;;;;;;;;;;10166602;28;20054;-65
2020/12/04 23:32:05;;;;;;;8.82;3.70;;;;;;;;;;10176397;28;20042;-63
2020/12/04 23:37:03;;;;;;;7.27;2.90;;;;;;;;;;10220105;28;20424;-63
2020/12/04 23:42:02;;;;;;;7.47;3.20;;;;;;;;;;10195445;28;20077;-66
2020/12/04 23:47:06;;;;;;;7.13;3.00;;;;;;;;;;10182048;28;20038;-64
2020/12/04 23:52:04;;;;;;;1.45;1.27;;;;;;;;;;10196833;28;20381;-64
2020/12/04 23:57:01;;;;;;;15.30;6.77;;;;;;;;;;10218509;28;20188;-65
